sensor_id;sensor_type;location;lat;lon;timestamp;P1;durP1;ratioP1;P2;durP2;ratioP2
15958;SDS011;8078;47.822;9.402;2024-01-06T00:00:46;7.27;;;3.50;;
15958;SDS011;8078;47.822;9.402;2024-01-06T00:03:14;4.93;;;3.10;;
15958;SDS011;8078;47.822;9.402;2024-01-06T00:05:39;5.47;;;3.10;;
15958;SDS011;8078;47.822;9.402;2024-01-06T00:08:05;5.27;;;3.10;;
15958;SDS011;8078;47.822;9.402;2024-01-06T00:10:31;3.20;;;2.40;;
15958;SDS011;8078;47.822;9.402;2024-01-06T00:12:57;5.27;;;2.40;;
15958;SDS011;8078;47.822;9.402;2024-01-06T00:15:22;5.30;;;2.20;;
15958;SDS011;8078;47.822;9.402;2024-01-06T00:17:48;3.83;;;2.23;;
15958;SDS011;8078;47.822;9.402;2024-01-06T00:20:14;2.83;;;2.00;;
15958;SDS011;8078;47.822;9.402;2024-01-06T00:22:39;5.57;;;2.60;;
15958;SDS011;8078;47.822;9.402;2024-01-06T00:25:06;2.37;;;2.00;;
15958;SDS011;8078;47.822;9.402;2024-01-06T00:27:32;4.93;;;2.80;;
15958;SDS011;8078;47.822;9.402;2024-01-06T00:29:57;3.13;;;2.57;;
15958;SDS011;8078;47.822;9.402;2024-01-06T00:32:23;3.97;;;2.77;;
15958;SDS011;8078;47.822;9.402;2024-01-06T00:34:48;4.93;;;3.00;;
15958;SDS011;8078;47.822;9.402;2024-01-06T00:37:14;3.47;;;2.67;;
15958;SDS011;8078;47.822;9.402;2024-01-06T00:39:40;5.23;;;2.80;;
15958;SDS011;8078;47.822;9.402;2024-01-06T00:42:05;5.70;;;2.57;;
15958;SDS011;8078;47.822;9.402;2024-01-06T00:44:31;3.77;;;2.73;;
15958;SDS011;8078;47.822;9.402;2024-01-06T00:46:57;5.40;;;2.53;;
15958;SDS011;8078;47.822;9.402;2024-01-06T00:49:22;3.57;;;2.67;;
15958;SDS011;8078;47.822;9.402;2024-01-06T00:51:48;4.40;;;2.97;;
15958;SDS011;8078;47.822;9.402;2024-01-06T00:54:13;5.00;;;2.63;;
15958;SDS011;8078;47.822;9.402;2024-01-06T00:56:39;5.37;;;2.60;;
15958;SDS011;8078;47.822;9.402;2024-01-06T00:59:07;7.93;;;2.43;;
15958;SDS011;8078;47.822;9.402;2024-01-06T01:01:32;5.80;;;2.60;;
15958;SDS011;8078;47.822;9.402;2024-01-06T01:03:58;4.43;;;2.60;;
15958;SDS011;8078;47.822;9.402;2024-01-06T01:06:23;4.73;;;2.43;;
15958;SDS011;8078;47.822;9.402;2024-01-06T01:08:49;2.53;;;2.33;;
15958;SDS011;8078;47.822;9.402;2024-01-06T01:11:15;4.37;;;2.20;;
15958;SDS011;8078;47.822;9.402;2024-01-06T01:13:41;5.47;;;2.20;;
15958;SDS011;8078;47.822;9.402;2024-01-06T01:16:07;2.27;;;2.07;;
15958;SDS011;8078;47.822;9.402;2024-01-06T01:18:32;4.20;;;2.47;;
15958;SDS011;8078;47.822;9.402;2024-01-06T01:20:58;4.80;;;2.43;;
15958;SDS011;8078;47.822;9.402;2024-01-06T01:23:23;3.00;;;2.00;;
15958;SDS011;8078;47.822;9.402;2024-01-06T01:25:49;4.60;;;2.30;;
15958;SDS011;8078;47.822;9.402;2024-01-06T01:28:14;3.77;;;2.50;;
15958;SDS011;8078;47.822;9.402;2024-01-06T01:30:40;5.90;;;2.10;;
15958;SDS011;8078;47.822;9.402;2024-01-06T01:33:05;5.53;;;2.60;;
15958;SDS011;8078;47.822;9.402;2024-01-06T01:35:31;2.93;;;2.50;;
15958;SDS011;8078;47.822;9.402;2024-01-06T01:37:56;2.70;;;2.20;;
15958;SDS011;8078;47.822;9.402;2024-01-06T01:40:22;2.77;;;2.20;;
15958;SDS011;8078;47.822;9.402;2024-01-06T01:42:47;3.90;;;2.30;;
15958;SDS011;8078;47.822;9.402;2024-01-06T01:45:13;4.10;;;2.27;;
15958;SDS011;8078;47.822;9.402;2024-01-06T01:47:39;3.10;;;2.10;;
15958;SDS011;8078;47.822;9.402;2024-01-06T01:50:04;3.33;;;2.10;;
15958;SDS011;8078;47.822;9.402;2024-01-06T01:52:31;2.20;;;2.00;;
15958;SDS011;8078;47.822;9.402;2024-01-06T01:54:57;3.37;;;2.20;;
15958;SDS011;8078;47.822;9.402;2024-01-06T01:57:24;4.37;;;2.43;;
15958;SDS011;8078;47.822;9.402;2024-01-06T01:59:50;4.30;;;2.30;;
15958;SDS011;8078;47.822;9.402;2024-01-06T02:02:18;2.17;;;1.97;;
15958;SDS011;8078;47.822;9.402;2024-01-06T02:04:44;2.40;;;2.00;;
15958;SDS011;8078;47.822;9.402;2024-01-06T02:07:10;2.37;;;2.17;;
15958;SDS011;8078;47.822;9.402;2024-01-06T02:09:36;2.30;;;2.10;;
15958;SDS011;8078;47.822;9.402;2024-01-06T02:12:01;3.03;;;2.27;;
15958;SDS011;8078;47.822;9.402;2024-01-06T02:14:27;2.40;;;2.20;;
15958;SDS011;8078;47.822;9.402;2024-01-06T02:16:53;2.30;;;2.10;;
15958;SDS011;8078;47.822;9.402;2024-01-06T02:19:18;2.37;;;2.00;;
15958;SDS011;8078;47.822;9.402;2024-01-06T02:21:47;2.83;;;2.53;;
15958;SDS011;8078;47.822;9.402;2024-01-06T02:24:14;2.77;;;2.50;;
15958;SDS011;8078;47.822;9.402;2024-01-06T02:26:39;3.03;;;2.73;;
15958;SDS011;8078;47.822;9.402;2024-01-06T02:29:05;3.70;;;2.70;;
15958;SDS011;8078;47.822;9.402;2024-01-06T02:31:30;2.97;;;2.60;;
15958;SDS011;8078;47.822;9.402;2024-01-06T02:33:56;4.17;;;3.03;;
15958;SDS011;8078;47.822;9.402;2024-01-06T02:36:22;3.67;;;3.30;;
15958;SDS011;8078;47.822;9.402;2024-01-06T02:38:47;5.43;;;3.73;;
15958;SDS011;8078;47.822;9.402;2024-01-06T02:41:13;4.87;;;3.43;;
15958;SDS011;8078;47.822;9.402;2024-01-06T02:43:38;4.47;;;3.70;;
15958;SDS011;8078;47.822;9.402;2024-01-06T02:46:04;6.37;;;3.97;;
15958;SDS011;8078;47.822;9.402;2024-01-06T02:48:29;5.17;;;4.00;;
15958;SDS011;8078;47.822;9.402;2024-01-06T02:50:55;5.50;;;4.07;;
15958;SDS011;8078;47.822;9.402;2024-01-06T02:53:21;9.13;;;4.53;;
15958;SDS011;8078;47.822;9.402;2024-01-06T02:55:47;4.53;;;4.00;;
15958;SDS011;8078;47.822;9.402;2024-01-06T02:58:12;6.67;;;4.47;;
15958;SDS011;8078;47.822;9.402;2024-01-06T03:00:38;5.37;;;4.27;;
15958;SDS011;8078;47.822;9.402;2024-01-06T03:03:04;4.97;;;4.00;;
15958;SDS011;8078;47.822;9.402;2024-01-06T03:05:29;7.73;;;3.80;;
15958;SDS011;8078;47.822;9.402;2024-01-06T03:07:55;6.37;;;4.40;;
15958;SDS011;8078;47.822;9.402;2024-01-06T03:10:20;7.43;;;3.97;;
15958;SDS011;8078;47.822;9.402;2024-01-06T03:12:46;7.80;;;3.50;;
15958;SDS011;8078;47.822;9.402;2024-01-06T03:15:11;10.23;;;4.50;;
15958;SDS011;8078;47.822;9.402;2024-01-06T03:17:37;4.50;;;3.70;;
15958;SDS011;8078;47.822;9.402;2024-01-06T03:20:03;9.13;;;4.00;;
15958;SDS011;8078;47.822;9.402;2024-01-06T03:22:29;4.00;;;3.33;;
15958;SDS011;8078;47.822;9.402;2024-01-06T03:24:55;4.07;;;3.67;;
15958;SDS011;8078;47.822;9.402;2024-01-06T03:27:20;6.97;;;3.60;;
15958;SDS011;8078;47.822;9.402;2024-01-06T03:29:46;5.47;;;3.33;;
15958;SDS011;8078;47.822;9.402;2024-01-06T03:32:11;4.10;;;3.60;;
15958;SDS011;8078;47.822;9.402;2024-01-06T03:34:37;5.60;;;3.27;;
15958;SDS011;8078;47.822;9.402;2024-01-06T03:37:03;5.80;;;3.20;;
15958;SDS011;8078;47.822;9.402;2024-01-06T03:39:28;9.10;;;3.47;;
15958;SDS011;8078;47.822;9.402;2024-01-06T03:41:54;7.00;;;2.83;;
15958;SDS011;8078;47.822;9.402;2024-01-06T03:44:19;4.40;;;2.67;;
15958;SDS011;8078;47.822;9.402;2024-01-06T03:46:45;3.37;;;2.50;;
15958;SDS011;8078;47.822;9.402;2024-01-06T03:49:10;3.93;;;2.93;;
15958;SDS011;8078;47.822;9.402;2024-01-06T03:51:36;12.43;;;3.90;;
15958;SDS011;8078;47.822;9.402;2024-01-06T03:54:01;64.87;;;6.27;;
15958;SDS011;8078;47.822;9.402;2024-01-06T03:56:27;11.17;;;3.53;;
15958;SDS011;8078;47.822;9.402;2024-01-06T03:58:53;15.17;;;3.90;;
15958;SDS011;8078;47.822;9.402;2024-01-06T04:01:18;12.80;;;3.27;;
15958;SDS011;8078;47.822;9.402;2024-01-06T04:03:44;6.67;;;3.10;;
15958;SDS011;8078;47.822;9.402;2024-01-06T04:06:10;3.97;;;2.93;;
15958;SDS011;8078;47.822;9.402;2024-01-06T04:08:36;5.23;;;3.03;;
15958;SDS011;8078;47.822;9.402;2024-01-06T04:11:01;4.80;;;3.23;;
15958;SDS011;8078;47.822;9.402;2024-01-06T04:13:27;6.10;;;3.40;;
15958;SDS011;8078;47.822;9.402;2024-01-06T04:15:53;4.63;;;3.03;;
15958;SDS011;8078;47.822;9.402;2024-01-06T04:18:19;4.60;;;2.80;;
15958;SDS011;8078;47.822;9.402;2024-01-06T04:20:44;6.43;;;3.10;;
15958;SDS011;8078;47.822;9.402;2024-01-06T04:23:10;13.50;;;3.00;;
15958;SDS011;8078;47.822;9.402;2024-01-06T04:25:35;9.17;;;3.03;;
15958;SDS011;8078;47.822;9.402;2024-01-06T04:28:01;4.50;;;3.47;;
15958;SDS011;8078;47.822;9.402;2024-01-06T04:30:26;20.33;;;3.37;;
15958;SDS011;8078;47.822;9.402;2024-01-06T04:32:52;19.50;;;3.90;;
15958;SDS011;8078;47.822;9.402;2024-01-06T04:35:19;7.07;;;2.70;;
15958;SDS011;8078;47.822;9.402;2024-01-06T04:37:45;23.70;;;4.43;;
15958;SDS011;8078;47.822;9.402;2024-01-06T04:40:11;48.70;;;5.87;;
15958;SDS011;8078;47.822;9.402;2024-01-06T04:42:36;38.53;;;4.67;;
15958;SDS011;8078;47.822;9.402;2024-01-06T04:45:02;54.73;;;5.97;;
15958;SDS011;8078;47.822;9.402;2024-01-06T04:47:29;154.57;;;10.60;;
15958;SDS011;8078;47.822;9.402;2024-01-06T04:49:55;113.63;;;9.30;;
15958;SDS011;8078;47.822;9.402;2024-01-06T04:52:21;83.93;;;7.00;;
15958;SDS011;8078;47.822;9.402;2024-01-06T04:54:47;58.20;;;6.07;;
15958;SDS011;8078;47.822;9.402;2024-01-06T04:57:13;109.70;;;8.77;;
15958;SDS011;8078;47.822;9.402;2024-01-06T04:59:39;56.63;;;5.73;;
15958;SDS011;8078;47.822;9.402;2024-01-06T05:02:05;134.10;;;9.90;;
15958;SDS011;8078;47.822;9.402;2024-01-06T05:04:31;91.00;;;8.13;;
15958;SDS011;8078;47.822;9.402;2024-01-06T05:06:58;57.40;;;6.30;;
15958;SDS011;8078;47.822;9.402;2024-01-06T05:09:24;121.67;;;9.87;;
15958;SDS011;8078;47.822;9.402;2024-01-06T05:11:50;16.23;;;3.60;;
15958;SDS011;8078;47.822;9.402;2024-01-06T05:14:16;61.23;;;6.87;;
15958;SDS011;8078;47.822;9.402;2024-01-06T05:16:41;4.50;;;2.80;;
15958;SDS011;8078;47.822;9.402;2024-01-06T05:19:07;8.47;;;3.10;;
15958;SDS011;8078;47.822;9.402;2024-01-06T05:21:33;3.70;;;2.90;;
15958;SDS011;8078;47.822;9.402;2024-01-06T05:23:59;15.07;;;3.27;;
15958;SDS011;8078;47.822;9.402;2024-01-06T05:26:25;5.57;;;3.00;;
15958;SDS011;8078;47.822;9.402;2024-01-06T05:28:51;5.73;;;3.33;;
15958;SDS011;8078;47.822;9.402;2024-01-06T05:31:17;4.60;;;2.93;;
15958;SDS011;8078;47.822;9.402;2024-01-06T05:33:43;7.30;;;3.23;;
15958;SDS011;8078;47.822;9.402;2024-01-06T05:36:08;11.37;;;3.30;;
15958;SDS011;8078;47.822;9.402;2024-01-06T05:38:34;9.63;;;3.30;;
15958;SDS011;8078;47.822;9.402;2024-01-06T05:41:01;9.83;;;3.60;;
15958;SDS011;8078;47.822;9.402;2024-01-06T05:43:27;4.90;;;3.73;;
15958;SDS011;8078;47.822;9.402;2024-01-06T05:45:52;6.57;;;3.20;;
15958;SDS011;8078;47.822;9.402;2024-01-06T05:48:18;3.93;;;2.87;;
15958;SDS011;8078;47.822;9.402;2024-01-06T05:50:43;5.70;;;3.10;;
15958;SDS011;8078;47.822;9.402;2024-01-06T05:53:09;5.73;;;3.10;;
15958;SDS011;8078;47.822;9.402;2024-01-06T05:55:35;9.23;;;3.10;;
15958;SDS011;8078;47.822;9.402;2024-01-06T05:58:01;3.60;;;2.77;;
15958;SDS011;8078;47.822;9.402;2024-01-06T06:00:27;5.47;;;3.17;;
15958;SDS011;8078;47.822;9.402;2024-01-06T06:02:52;3.53;;;2.73;;
15958;SDS011;8078;47.822;9.402;2024-01-06T06:05:18;12.37;;;3.43;;
15958;SDS011;8078;47.822;9.402;2024-01-06T06:07:45;3.53;;;2.90;;
15958;SDS011;8078;47.822;9.402;2024-01-06T06:10:10;5.90;;;2.87;;
15958;SDS011;8078;47.822;9.402;2024-01-06T06:12:36;7.90;;;3.07;;
15958;SDS011;8078;47.822;9.402;2024-01-06T06:15:03;3.43;;;2.90;;
15958;SDS011;8078;47.822;9.402;2024-01-06T06:17:30;3.13;;;2.63;;
15958;SDS011;8078;47.822;9.402;2024-01-06T06:19:56;4.30;;;2.47;;
15958;SDS011;8078;47.822;9.402;2024-01-06T06:22:22;4.20;;;3.00;;
15958;SDS011;8078;47.822;9.402;2024-01-06T06:24:48;6.33;;;2.73;;
15958;SDS011;8078;47.822;9.402;2024-01-06T06:27:14;6.60;;;2.67;;
15958;SDS011;8078;47.822;9.402;2024-01-06T06:29:39;6.13;;;2.80;;
15958;SDS011;8078;47.822;9.402;2024-01-06T06:32:05;5.73;;;2.83;;
15958;SDS011;8078;47.822;9.402;2024-01-06T06:34:30;4.50;;;2.53;;
15958;SDS011;8078;47.822;9.402;2024-01-06T06:36:56;8.47;;;3.63;;
15958;SDS011;8078;47.822;9.402;2024-01-06T06:39:21;5.63;;;2.90;;
15958;SDS011;8078;47.822;9.402;2024-01-06T06:41:47;8.37;;;3.20;;
15958;SDS011;8078;47.822;9.402;2024-01-06T06:44:13;3.13;;;2.77;;
15958;SDS011;8078;47.822;9.402;2024-01-06T06:46:38;6.40;;;3.10;;
15958;SDS011;8078;47.822;9.402;2024-01-06T06:49:04;4.43;;;2.70;;
15958;SDS011;8078;47.822;9.402;2024-01-06T06:51:30;6.10;;;3.17;;
15958;SDS011;8078;47.822;9.402;2024-01-06T06:53:55;6.63;;;3.40;;
15958;SDS011;8078;47.822;9.402;2024-01-06T06:56:21;17.13;;;3.63;;
15958;SDS011;8078;47.822;9.402;2024-01-06T06:58:47;13.83;;;3.70;;
15958;SDS011;8078;47.822;9.402;2024-01-06T07:01:14;202.03;;;9.77;;
15958;SDS011;8078;47.822;9.402;2024-01-06T07:03:40;229.77;;;10.40;;
15958;SDS011;8078;47.822;9.402;2024-01-06T07:06:06;396.77;;;14.93;;
15958;SDS011;8078;47.822;9.402;2024-01-06T07:08:31;243.23;;;11.80;;
15958;SDS011;8078;47.822;9.402;2024-01-06T07:10:57;142.90;;;8.13;;
15958;SDS011;8078;47.822;9.402;2024-01-06T07:13:22;171.13;;;8.50;;
15958;SDS011;8078;47.822;9.402;2024-01-06T07:15:48;34.60;;;5.23;;
15958;SDS011;8078;47.822;9.402;2024-01-06T07:18:13;36.53;;;5.37;;
15958;SDS011;8078;47.822;9.402;2024-01-06T07:20:39;48.23;;;5.93;;
15958;SDS011;8078;47.822;9.402;2024-01-06T07:23:04;161.03;;;10.00;;
15958;SDS011;8078;47.822;9.402;2024-01-06T07:25:30;219.07;;;11.23;;
15958;SDS011;8078;47.822;9.402;2024-01-06T07:27:55;127.63;;;8.70;;
15958;SDS011;8078;47.822;9.402;2024-01-06T07:30:21;102.57;;;10.00;;
15958;SDS011;8078;47.822;9.402;2024-01-06T07:32:47;66.23;;;6.93;;
15958;SDS011;8078;47.822;9.402;2024-01-06T07:35:14;64.90;;;6.87;;
15958;SDS011;8078;47.822;9.402;2024-01-06T07:37:41;54.47;;;6.63;;
15958;SDS011;8078;47.822;9.402;2024-01-06T07:40:06;77.13;;;7.07;;
15958;SDS011;8078;47.822;9.402;2024-01-06T07:42:32;37.37;;;5.17;;
15958;SDS011;8078;47.822;9.402;2024-01-06T07:44:58;90.80;;;8.67;;
15958;SDS011;8078;47.822;9.402;2024-01-06T07:47:23;20.30;;;4.77;;
15958;SDS011;8078;47.822;9.402;2024-01-06T07:49:49;154.77;;;11.83;;
15958;SDS011;8078;47.822;9.402;2024-01-06T07:52:15;157.13;;;12.33;;
15958;SDS011;8078;47.822;9.402;2024-01-06T07:54:41;114.57;;;8.57;;
15958;SDS011;8078;47.822;9.402;2024-01-06T07:57:07;8.87;;;4.47;;
15958;SDS011;8078;47.822;9.402;2024-01-06T07:59:32;8.33;;;4.87;;
15958;SDS011;8078;47.822;9.402;2024-01-06T08:01:58;10.87;;;4.70;;
15958;SDS011;8078;47.822;9.402;2024-01-06T08:04:24;6.27;;;4.73;;
15958;SDS011;8078;47.822;9.402;2024-01-06T08:06:49;10.70;;;4.80;;
15958;SDS011;8078;47.822;9.402;2024-01-06T08:09:15;10.33;;;5.33;;
15958;SDS011;8078;47.822;9.402;2024-01-06T08:11:40;11.57;;;5.00;;
15958;SDS011;8078;47.822;9.402;2024-01-06T08:14:07;10.60;;;4.90;;
15958;SDS011;8078;47.822;9.402;2024-01-06T08:16:33;9.67;;;5.60;;
15958;SDS011;8078;47.822;9.402;2024-01-06T08:18:59;24.93;;;6.30;;
15958;SDS011;8078;47.822;9.402;2024-01-06T08:21:24;34.87;;;7.00;;
15958;SDS011;8078;47.822;9.402;2024-01-06T08:23:50;9.33;;;4.97;;
15958;SDS011;8078;47.822;9.402;2024-01-06T08:26:15;7.50;;;5.13;;
15958;SDS011;8078;47.822;9.402;2024-01-06T08:28:41;23.90;;;6.23;;
15958;SDS011;8078;47.822;9.402;2024-01-06T08:31:07;7.13;;;4.83;;
15958;SDS011;8078;47.822;9.402;2024-01-06T08:33:32;8.47;;;4.57;;
15958;SDS011;8078;47.822;9.402;2024-01-06T08:35:58;8.70;;;4.93;;
15958;SDS011;8078;47.822;9.402;2024-01-06T08:38:23;7.53;;;4.97;;
15958;SDS011;8078;47.822;9.402;2024-01-06T08:40:49;9.80;;;4.20;;
15958;SDS011;8078;47.822;9.402;2024-01-06T08:43:15;9.00;;;4.60;;
15958;SDS011;8078;47.822;9.402;2024-01-06T08:45:41;8.03;;;5.20;;
15958;SDS011;8078;47.822;9.402;2024-01-06T08:48:07;7.00;;;4.83;;
15958;SDS011;8078;47.822;9.402;2024-01-06T08:50:32;9.13;;;4.90;;
15958;SDS011;8078;47.822;9.402;2024-01-06T08:52:58;6.43;;;4.43;;
15958;SDS011;8078;47.822;9.402;2024-01-06T08:55:23;4.97;;;3.60;;
15958;SDS011;8078;47.822;9.402;2024-01-06T08:57:50;6.47;;;3.80;;
15958;SDS011;8078;47.822;9.402;2024-01-06T09:00:15;4.90;;;4.20;;
15958;SDS011;8078;47.822;9.402;2024-01-06T09:02:42;9.83;;;4.43;;
15958;SDS011;8078;47.822;9.402;2024-01-06T09:05:07;10.83;;;4.77;;
15958;SDS011;8078;47.822;9.402;2024-01-06T09:07:33;7.40;;;4.90;;
15958;SDS011;8078;47.822;9.402;2024-01-06T09:09:59;5.50;;;4.13;;
15958;SDS011;8078;47.822;9.402;2024-01-06T09:12:25;7.47;;;4.57;;
15958;SDS011;8078;47.822;9.402;2024-01-06T09:14:51;6.43;;;3.97;;
15958;SDS011;8078;47.822;9.402;2024-01-06T09:17:16;6.47;;;3.77;;
15958;SDS011;8078;47.822;9.402;2024-01-06T09:19:42;9.80;;;4.13;;
15958;SDS011;8078;47.822;9.402;2024-01-06T09:22:08;7.97;;;4.57;;
15958;SDS011;8078;47.822;9.402;2024-01-06T09:24:33;7.30;;;3.90;;
15958;SDS011;8078;47.822;9.402;2024-01-06T09:26:59;15.67;;;5.10;;
15958;SDS011;8078;47.822;9.402;2024-01-06T09:29:24;6.73;;;4.63;;
15958;SDS011;8078;47.822;9.402;2024-01-06T09:31:50;7.97;;;4.37;;
15958;SDS011;8078;47.822;9.402;2024-01-06T09:34:15;109.83;;;7.57;;
15958;SDS011;8078;47.822;9.402;2024-01-06T09:36:41;13.00;;;5.10;;
15958;SDS011;8078;47.822;9.402;2024-01-06T09:39:06;76.37;;;7.60;;
15958;SDS011;8078;47.822;9.402;2024-01-06T09:41:33;54.20;;;6.30;;
15958;SDS011;8078;47.822;9.402;2024-01-06T09:43:58;12.50;;;5.87;;
15958;SDS011;8078;47.822;9.402;2024-01-06T09:46:25;85.27;;;8.57;;
15958;SDS011;8078;47.822;9.402;2024-01-06T09:48:52;53.27;;;7.47;;
15958;SDS011;8078;47.822;9.402;2024-01-06T09:51:19;45.30;;;6.43;;
15958;SDS011;8078;47.822;9.402;2024-01-06T09:53:58;348.23;;;17.83;;
15958;SDS011;8078;47.822;9.402;2024-01-06T09:56:25;345.63;;;19.83;;
15958;SDS011;8078;47.822;9.402;2024-01-06T09:58:52;53.77;;;7.83;;
15958;SDS011;8078;47.822;9.402;2024-01-06T10:01:18;38.00;;;7.53;;
15958;SDS011;8078;47.822;9.402;2024-01-06T10:03:44;16.97;;;5.90;;
15958;SDS011;8078;47.822;9.402;2024-01-06T10:06:16;16.23;;;5.70;;
15958;SDS011;8078;47.822;9.402;2024-01-06T10:08:49;9.80;;;6.10;;
15958;SDS011;8078;47.822;9.402;2024-01-06T10:11:16;20.13;;;5.67;;
15958;SDS011;8078;47.822;9.402;2024-01-06T10:13:42;36.77;;;7.13;;
15958;SDS011;8078;47.822;9.402;2024-01-06T10:16:07;9.20;;;5.63;;
15958;SDS011;8078;47.822;9.402;2024-01-06T10:18:33;12.43;;;5.90;;
15958;SDS011;8078;47.822;9.402;2024-01-06T10:21:02;9.03;;;5.77;;
15958;SDS011;8078;47.822;9.402;2024-01-06T10:23:29;8.27;;;5.00;;
15958;SDS011;8078;47.822;9.402;2024-01-06T10:25:57;11.27;;;5.23;;
15958;SDS011;8078;47.822;9.402;2024-01-06T10:28:23;8.90;;;5.20;;
15958;SDS011;8078;47.822;9.402;2024-01-06T10:30:52;8.27;;;5.03;;
15958;SDS011;8078;47.822;9.402;2024-01-06T10:33:21;11.13;;;5.00;;
15958;SDS011;8078;47.822;9.402;2024-01-06T10:35:48;6.27;;;4.63;;
15958;SDS011;8078;47.822;9.402;2024-01-06T10:38:14;8.17;;;4.43;;
15958;SDS011;8078;47.822;9.402;2024-01-06T10:41:00;5.77;;;3.53;;
15958;SDS011;8078;47.822;9.402;2024-01-06T10:43:34;6.00;;;3.90;;
15958;SDS011;8078;47.822;9.402;2024-01-06T10:46:03;5.87;;;3.80;;
15958;SDS011;8078;47.822;9.402;2024-01-06T10:48:33;6.10;;;4.47;;
15958;SDS011;8078;47.822;9.402;2024-01-06T10:51:00;7.27;;;4.20;;
15958;SDS011;8078;47.822;9.402;2024-01-06T10:53:27;5.33;;;4.27;;
15958;SDS011;8078;47.822;9.402;2024-01-06T10:55:53;5.37;;;4.00;;
15958;SDS011;8078;47.822;9.402;2024-01-06T10:58:18;10.63;;;4.87;;
15958;SDS011;8078;47.822;9.402;2024-01-06T11:00:45;5.87;;;4.13;;
15958;SDS011;8078;47.822;9.402;2024-01-06T11:03:12;7.77;;;4.10;;
15958;SDS011;8078;47.822;9.402;2024-01-06T11:05:38;8.70;;;4.47;;
15958;SDS011;8078;47.822;9.402;2024-01-06T11:08:06;9.53;;;4.37;;
15958;SDS011;8078;47.822;9.402;2024-01-06T11:10:32;6.73;;;4.57;;
15958;SDS011;8078;47.822;9.402;2024-01-06T11:13:05;6.57;;;3.90;;
15958;SDS011;8078;47.822;9.402;2024-01-06T11:15:47;5.50;;;3.70;;
15958;SDS011;8078;47.822;9.402;2024-01-06T11:21:14;9.60;;;3.73;;
15958;SDS011;8078;47.822;9.402;2024-01-06T11:23:43;5.20;;;3.77;;
15958;SDS011;8078;47.822;9.402;2024-01-06T11:26:10;4.40;;;4.00;;
15958;SDS011;8078;47.822;9.402;2024-01-06T11:28:45;8.87;;;3.07;;
15958;SDS011;8078;47.822;9.402;2024-01-06T11:31:12;4.77;;;2.67;;
15958;SDS011;8078;47.822;9.402;2024-01-06T11:33:44;7.00;;;3.23;;
15958;SDS011;8078;47.822;9.402;2024-01-06T11:36:12;5.17;;;3.00;;
15958;SDS011;8078;47.822;9.402;2024-01-06T11:38:44;3.63;;;3.00;;
15958;SDS011;8078;47.822;9.402;2024-01-06T11:41:44;8.47;;;2.77;;
15958;SDS011;8078;47.822;9.402;2024-01-06T11:44:17;10.07;;;3.27;;
15958;SDS011;8078;47.822;9.402;2024-01-06T11:46:45;4.60;;;3.17;;
15958;SDS011;8078;47.822;9.402;2024-01-06T11:49:11;5.37;;;3.50;;
15958;SDS011;8078;47.822;9.402;2024-01-06T11:51:40;6.47;;;3.07;;
15958;SDS011;8078;47.822;9.402;2024-01-06T11:54:06;3.53;;;2.77;;
15958;SDS011;8078;47.822;9.402;2024-01-06T11:56:33;5.73;;;2.97;;
15958;SDS011;8078;47.822;9.402;2024-01-06T11:58:59;7.07;;;3.30;;
15958;SDS011;8078;47.822;9.402;2024-01-06T12:01:25;7.27;;;3.80;;
15958;SDS011;8078;47.822;9.402;2024-01-06T12:03:54;6.67;;;3.87;;
15958;SDS011;8078;47.822;9.402;2024-01-06T12:06:20;6.77;;;3.80;;
15958;SDS011;8078;47.822;9.402;2024-01-06T12:08:49;6.27;;;3.70;;
15958;SDS011;8078;47.822;9.402;2024-01-06T12:11:17;5.60;;;3.80;;
15958;SDS011;8078;47.822;9.402;2024-01-06T12:13:43;5.20;;;3.70;;
15958;SDS011;8078;47.822;9.402;2024-01-06T12:16:09;6.60;;;3.53;;
15958;SDS011;8078;47.822;9.402;2024-01-06T12:18:35;5.20;;;3.57;;
15958;SDS011;8078;47.822;9.402;2024-01-06T12:21:01;7.90;;;3.67;;
15958;SDS011;8078;47.822;9.402;2024-01-06T12:23:27;9.23;;;4.50;;
15958;SDS011;8078;47.822;9.402;2024-01-06T12:25:53;5.70;;;3.80;;
15958;SDS011;8078;47.822;9.402;2024-01-06T12:28:22;6.47;;;3.43;;
15958;SDS011;8078;47.822;9.402;2024-01-06T12:30:48;4.97;;;3.37;;
15958;SDS011;8078;47.822;9.402;2024-01-06T12:33:13;9.60;;;3.77;;
15958;SDS011;8078;47.822;9.402;2024-01-06T12:35:39;9.20;;;3.93;;
15958;SDS011;8078;47.822;9.402;2024-01-06T12:38:06;6.10;;;3.27;;
15958;SDS011;8078;47.822;9.402;2024-01-06T12:40:35;5.83;;;3.63;;
15958;SDS011;8078;47.822;9.402;2024-01-06T12:43:02;4.50;;;3.63;;
15958;SDS011;8078;47.822;9.402;2024-01-06T12:45:28;5.43;;;3.50;;
15958;SDS011;8078;47.822;9.402;2024-01-06T12:47:54;5.37;;;3.70;;
15958;SDS011;8078;47.822;9.402;2024-01-06T12:50:19;5.77;;;4.60;;
15958;SDS011;8078;47.822;9.402;2024-01-06T12:52:45;5.90;;;4.30;;
15958;SDS011;8078;47.822;9.402;2024-01-06T12:55:11;9.97;;;5.30;;
15958;SDS011;8078;47.822;9.402;2024-01-06T12:57:37;6.40;;;4.67;;
15958;SDS011;8078;47.822;9.402;2024-01-06T13:00:03;7.43;;;5.00;;
15958;SDS011;8078;47.822;9.402;2024-01-06T13:02:30;6.83;;;4.47;;
15958;SDS011;8078;47.822;9.402;2024-01-06T13:04:56;6.53;;;4.20;;
15958;SDS011;8078;47.822;9.402;2024-01-06T13:07:22;6.53;;;4.77;;
15958;SDS011;8078;47.822;9.402;2024-01-06T13:09:48;6.37;;;4.50;;
15958;SDS011;8078;47.822;9.402;2024-01-06T13:12:14;5.30;;;4.13;;
15958;SDS011;8078;47.822;9.402;2024-01-06T13:14:39;6.53;;;4.53;;
15958;SDS011;8078;47.822;9.402;2024-01-06T13:17:05;6.33;;;4.40;;
15958;SDS011;8078;47.822;9.402;2024-01-06T13:19:31;11.07;;;4.57;;
15958;SDS011;8078;47.822;9.402;2024-01-06T13:21:56;7.60;;;4.43;;
15958;SDS011;8078;47.822;9.402;2024-01-06T13:24:22;8.53;;;4.53;;
15958;SDS011;8078;47.822;9.402;2024-01-06T13:26:48;6.63;;;4.23;;
15958;SDS011;8078;47.822;9.402;2024-01-06T13:29:14;7.53;;;4.00;;
15958;SDS011;8078;47.822;9.402;2024-01-06T13:31:39;6.40;;;4.40;;
15958;SDS011;8078;47.822;9.402;2024-01-06T13:34:06;5.23;;;3.83;;
15958;SDS011;8078;47.822;9.402;2024-01-06T13:36:32;5.57;;;4.10;;
15958;SDS011;8078;47.822;9.402;2024-01-06T13:38:57;6.47;;;4.40;;
15958;SDS011;8078;47.822;9.402;2024-01-06T13:41:24;9.00;;;4.80;;
15958;SDS011;8078;47.822;9.402;2024-01-06T13:43:50;7.00;;;4.10;;
15958;SDS011;8078;47.822;9.402;2024-01-06T13:46:16;7.20;;;4.10;;
15958;SDS011;8078;47.822;9.402;2024-01-06T13:48:41;6.33;;;4.37;;
15958;SDS011;8078;47.822;9.402;2024-01-06T13:51:07;8.43;;;4.93;;
15958;SDS011;8078;47.822;9.402;2024-01-06T13:53:33;10.73;;;4.90;;
15958;SDS011;8078;47.822;9.402;2024-01-06T13:55:58;6.70;;;4.40;;
15958;SDS011;8078;47.822;9.402;2024-01-06T13:58:24;7.13;;;5.20;;
15958;SDS011;8078;47.822;9.402;2024-01-06T14:00:50;9.60;;;5.13;;
15958;SDS011;8078;47.822;9.402;2024-01-06T14:03:15;9.23;;;5.17;;
15958;SDS011;8078;47.822;9.402;2024-01-06T14:05:41;7.20;;;5.10;;
15958;SDS011;8078;47.822;9.402;2024-01-06T14:08:06;7.67;;;5.17;;
15958;SDS011;8078;47.822;9.402;2024-01-06T14:10:32;6.67;;;4.90;;
15958;SDS011;8078;47.822;9.402;2024-01-06T14:12:58;7.97;;;5.30;;
15958;SDS011;8078;47.822;9.402;2024-01-06T14:15:23;7.37;;;5.17;;
15958;SDS011;8078;47.822;9.402;2024-01-06T14:17:51;6.97;;;4.97;;
15958;SDS011;8078;47.822;9.402;2024-01-06T14:20:17;7.50;;;5.47;;
15958;SDS011;8078;47.822;9.402;2024-01-06T14:22:44;8.47;;;5.17;;
15958;SDS011;8078;47.822;9.402;2024-01-06T14:25:11;10.17;;;5.10;;
15958;SDS011;8078;47.822;9.402;2024-01-06T14:27:42;7.03;;;4.53;;
15958;SDS011;8078;47.822;9.402;2024-01-06T14:30:08;6.80;;;4.63;;
15958;SDS011;8078;47.822;9.402;2024-01-06T14:32:34;8.03;;;5.33;;
15958;SDS011;8078;47.822;9.402;2024-01-06T14:35:05;7.43;;;4.60;;
15958;SDS011;8078;47.822;9.402;2024-01-06T14:37:36;6.83;;;5.30;;
15958;SDS011;8078;47.822;9.402;2024-01-06T14:40:03;9.77;;;4.67;;
15958;SDS011;8078;47.822;9.402;2024-01-06T14:42:30;8.17;;;4.70;;
15958;SDS011;8078;47.822;9.402;2024-01-06T14:44:57;5.90;;;4.47;;
15958;SDS011;8078;47.822;9.402;2024-01-06T14:47:22;6.87;;;4.20;;
15958;SDS011;8078;47.822;9.402;2024-01-06T14:49:48;7.40;;;4.50;;
15958;SDS011;8078;47.822;9.402;2024-01-06T14:52:13;6.57;;;4.20;;
15958;SDS011;8078;47.822;9.402;2024-01-06T14:54:39;8.83;;;4.37;;